IBE09PZ LEMD-LDDU
Flight info
| Callsign | IBE09PZ |
|---|---|
| Flight time | N/A |
| Altitude | 37000 |
| Route | PINAR N870 BCN N725 OSPOK DCT NOLVI DCT ORKUM DCT ELSAG DCT ALG DCT ARSIK DCT XOLTA DCT ORAKA |
| Aircraft | A320/M-SDE3FGHIRWY/LB1 |
Departure
| Time | 2026-05-06 11:45 |
|---|---|
| Airport | Adolfo Suárez Madrid–Barajas Airport (LEMD) |
Arrival
| Time | N/A |
|---|---|
| Airport | Dubrovnik Ruđer Bošković Airport (LDDU) |
| Time | Latitude | Longitude | Altitude | Speed | Heading |
|---|---|---|---|---|---|
| 2026-05-06 11:12 | 40.49119 | -3.58966 | 2032 ft | 0 kts | 269° |
| 2026-05-06 11:29 | 40.49119 | -3.58965 | 2022 ft | 0 kts | 269° |
| 2026-05-06 11:34 | 40.49120 | -3.58955 | 2033 ft | 4 kts | 269° |
| 2026-05-06 11:34 | 40.49120 | -3.58924 | 2028 ft | 2 kts | 270° |
| 2026-05-06 11:34 | 40.49123 | -3.58894 | 2030 ft | 4 kts | 227° |
| 2026-05-06 11:35 | 40.49144 | -3.58881 | 2029 ft | 3 kts | 179° |
| 2026-05-06 11:35 | 40.49157 | -3.58881 | 2033 ft | 0 kts | 179° |
| 2026-05-06 11:37 | 40.49144 | -3.58881 | 2027 ft | 8 kts | 179° |
| 2026-05-06 11:38 | 40.49037 | -3.58879 | 2024 ft | 16 kts | 180° |
| 2026-05-06 11:38 | 40.48928 | -3.58878 | 2022 ft | 16 kts | 179° |
| 2026-05-06 11:38 | 40.48822 | -3.58877 | 2022 ft | 15 kts | 180° |
| 2026-05-06 11:38 | 40.48760 | -3.58806 | 2022 ft | 14 kts | 94° |
| 2026-05-06 11:39 | 40.48761 | -3.58675 | 2022 ft | 15 kts | 90° |
| 2026-05-06 11:39 | 40.48760 | -3.58533 | 2018 ft | 17 kts | 91° |
| 2026-05-06 11:39 | 40.48762 | -3.58357 | 2014 ft | 21 kts | 90° |
| 2026-05-06 11:39 | 40.48763 | -3.58154 | 2007 ft | 19 kts | 90° |
| 2026-05-06 11:40 | 40.48811 | -3.58052 | 2003 ft | 14 kts | 16° |
| 2026-05-06 11:40 | 40.48855 | -3.57944 | 1999 ft | 18 kts | 89° |
| 2026-05-06 11:40 | 40.48858 | -3.57756 | 1993 ft | 24 kts | 91° |
| 2026-05-06 11:40 | 40.48858 | -3.57530 | 1989 ft | 26 kts | 89° |
| 2026-05-06 11:41 | 40.48859 | -3.57288 | 1984 ft | 27 kts | 90° |
| 2026-05-06 11:41 | 40.48860 | -3.57032 | 1980 ft | 27 kts | 89° |
| 2026-05-06 11:41 | 40.48861 | -3.56776 | 1975 ft | 29 kts | 90° |
| 2026-05-06 11:41 | 40.48861 | -3.56547 | 1970 ft | 24 kts | 90° |
| 2026-05-06 11:42 | 40.48863 | -3.56328 | 1964 ft | 19 kts | 89° |
| 2026-05-06 11:42 | 40.48935 | -3.56242 | 1962 ft | 17 kts | 355° |
| 2026-05-06 11:42 | 40.49081 | -3.56246 | 1962 ft | 24 kts | 0° |
| 2026-05-06 11:42 | 40.49245 | -3.56247 | 1961 ft | 24 kts | 359° |
| 2026-05-06 11:43 | 40.49415 | -3.56250 | 1962 ft | 25 kts | 359° |
| 2026-05-06 11:43 | 40.49588 | -3.56249 | 1961 ft | 25 kts | 359° |
| 2026-05-06 11:43 | 40.49763 | -3.56251 | 1961 ft | 26 kts | 357° |
| 2026-05-06 11:44 | 40.49941 | -3.56085 | 1958 ft | 21 kts | 86° |
| 2026-05-06 11:44 | 40.50075 | -3.55918 | 1960 ft | 47 kts | 13° |
| 2026-05-06 11:44 | 40.50630 | -3.55922 | 1965 ft | 110 kts | 359° |
| 2026-05-06 11:44 | 40.51580 | -3.55934 | 1951 ft | 160 kts | 359° |
| 2026-05-06 11:45 | 40.52771 | -3.55885 | 2263 ft | 178 kts | 5° |
| 2026-05-06 11:45 | 40.54028 | -3.55813 | 2958 ft | 184 kts | 4° |
| 2026-05-06 11:45 | 40.55290 | -3.55486 | 3660 ft | 186 kts | 17° |
| 2026-05-06 11:45 | 40.56545 | -3.54935 | 4111 ft | 198 kts | 18° |
| 2026-05-06 11:46 | 40.57935 | -3.54360 | 4354 ft | 221 kts | 17° |
| 2026-05-06 11:46 | 40.59405 | -3.53655 | 4995 ft | 227 kts | 31° |
| 2026-05-06 11:46 | 40.60721 | -3.52359 | 5390 ft | 249 kts | 40° |
| 2026-05-06 11:46 | 40.62104 | -3.50828 | 5819 ft | 268 kts | 40° |
| 2026-05-06 11:47 | 40.63518 | -3.49237 | 6577 ft | 273 kts | 40° |
| 2026-05-06 11:47 | 40.64970 | -3.47600 | 7367 ft | 277 kts | 40° |
| 2026-05-06 11:47 | 40.66442 | -3.45940 | 8158 ft | 280 kts | 40° |
| 2026-05-06 11:47 | 40.67931 | -3.44266 | 8950 ft | 284 kts | 40° |
| 2026-05-06 11:48 | 40.69447 | -3.42565 | 9733 ft | 288 kts | 40° |
| 2026-05-06 11:48 | 40.70991 | -3.40834 | 10330 ft | 299 kts | 40° |
| 2026-05-06 11:48 | 40.72634 | -3.38993 | 10546 ft | 322 kts | 40° |
| 2026-05-06 11:48 | 40.74402 | -3.37014 | 10726 ft | 344 kts | 40° |
| 2026-05-06 11:49 | 40.76261 | -3.34930 | 11160 ft | 355 kts | 40° |
| 2026-05-06 11:49 | 40.78128 | -3.32830 | 11795 ft | 360 kts | 40° |
| 2026-05-06 11:49 | 40.80044 | -3.30677 | 12483 ft | 363 kts | 40° |
| 2026-05-06 11:49 | 40.81980 | -3.28503 | 13158 ft | 367 kts | 40° |
| 2026-05-06 11:50 | 40.83838 | -3.26168 | 13818 ft | 372 kts | 49° |
| 2026-05-06 11:50 | 40.85306 | -3.23341 | 14398 ft | 377 kts | 62° |
| 2026-05-06 11:50 | 40.86292 | -3.20116 | 14981 ft | 381 kts | 73° |
| 2026-05-06 11:50 | 40.86966 | -3.16711 | 15548 ft | 385 kts | 75° |
| 2026-05-06 11:51 | 40.87635 | -3.13315 | 16105 ft | 389 kts | 74° |
| 2026-05-06 11:51 | 40.88320 | -3.09846 | 16670 ft | 392 kts | 74° |
| 2026-05-06 11:51 | 40.89010 | -3.06335 | 17195 ft | 396 kts | 74° |
| 2026-05-06 11:51 | 40.89707 | -3.02796 | 17753 ft | 400 kts | 74° |
| 2026-05-06 11:52 | 40.90411 | -2.99221 | 18282 ft | 404 kts | 74° |
| 2026-05-06 11:52 | 40.91116 | -2.95613 | 18707 ft | 408 kts | 74° |
| 2026-05-06 11:52 | 40.91828 | -2.91961 | 19136 ft | 412 kts | 74° |
| 2026-05-06 11:52 | 40.92549 | -2.88271 | 19550 ft | 417 kts | 74° |
| 2026-05-06 11:53 | 40.93277 | -2.84540 | 19948 ft | 422 kts | 74° |
| 2026-05-06 11:53 | 40.94011 | -2.80762 | 20351 ft | 426 kts | 74° |
| 2026-05-06 11:53 | 40.94740 | -2.76999 | 20743 ft | 431 kts | 74° |
| 2026-05-06 11:53 | 40.95488 | -2.73139 | 21131 ft | 435 kts | 74° |
| 2026-05-06 11:54 | 40.96241 | -2.69244 | 21520 ft | 440 kts | 75° |
| 2026-05-06 11:54 | 40.96998 | -2.65307 | 21898 ft | 444 kts | 75° |
| 2026-05-06 11:54 | 40.97762 | -2.61326 | 22263 ft | 449 kts | 75° |
| 2026-05-06 11:54 | 40.98534 | -2.57308 | 22634 ft | 453 kts | 75° |
| 2026-05-06 11:55 | 40.99311 | -2.53250 | 22985 ft | 457 kts | 75° |
| 2026-05-06 11:55 | 41.00095 | -2.49146 | 23336 ft | 462 kts | 75° |
| 2026-05-06 11:55 | 41.00882 | -2.45007 | 23662 ft | 466 kts | 75° |
| 2026-05-06 11:55 | 41.01664 | -2.40892 | 23955 ft | 469 kts | 75° |
| 2026-05-06 11:56 | 41.02411 | -2.36956 | 24261 ft | 471 kts | 75° |
| 2026-05-06 11:56 | 41.03213 | -2.32730 | 24583 ft | 474 kts | 75° |
| 2026-05-06 11:56 | 41.04018 | -2.28483 | 24910 ft | 476 kts | 75° |
| 2026-05-06 11:56 | 41.04827 | -2.24217 | 25224 ft | 479 kts | 75° |
| 2026-05-06 11:57 | 41.05638 | -2.19927 | 25540 ft | 482 kts | 75° |
| 2026-05-06 11:57 | 41.06452 | -2.15612 | 25847 ft | 484 kts | 75° |
| 2026-05-06 11:57 | 41.07255 | -2.11328 | 26143 ft | 487 kts | 75° |
| 2026-05-06 11:57 | 41.08070 | -2.06967 | 26444 ft | 489 kts | 76° |
| 2026-05-06 11:58 | 41.08889 | -2.02580 | 26741 ft | 491 kts | 76° |
| 2026-05-06 11:58 | 41.09710 | -1.98171 | 27028 ft | 494 kts | 76° |
| 2026-05-06 11:58 | 41.10536 | -1.93739 | 27306 ft | 496 kts | 76° |
| 2026-05-06 11:58 | 41.11360 | -1.89293 | 27572 ft | 498 kts | 76° |
| 2026-05-06 11:59 | 41.12185 | -1.84815 | 27845 ft | 501 kts | 76° |
| 2026-05-06 11:59 | 41.13010 | -1.80321 | 28121 ft | 503 kts | 76° |
| 2026-05-06 11:59 | 41.13837 | -1.75810 | 28378 ft | 505 kts | 76° |
| 2026-05-06 11:59 | 41.14657 | -1.71330 | 28632 ft | 507 kts | 76° |
| 2026-05-06 12:00 | 41.15493 | -1.66777 | 28901 ft | 509 kts | 76° |
| 2026-05-06 12:00 | 41.16329 | -1.62218 | 29291 ft | 508 kts | 76° |
| 2026-05-06 12:00 | 41.17162 | -1.57671 | 29665 ft | 507 kts | 76° |
| 2026-05-06 12:00 | 41.17990 | -1.53124 | 30039 ft | 507 kts | 76° |
| 2026-05-06 12:01 | 41.18812 | -1.48576 | 30357 ft | 506 kts | 76° |
| 2026-05-06 12:01 | 41.19629 | -1.44033 | 30668 ft | 506 kts | 76° |
| 2026-05-06 12:01 | 41.20446 | -1.39489 | 30978 ft | 505 kts | 76° |
| 2026-05-06 12:01 | 41.21251 | -1.35021 | 31288 ft | 505 kts | 76° |
| 2026-05-06 12:02 | 41.22069 | -1.30494 | 31594 ft | 504 kts | 76° |
| 2026-05-06 12:02 | 41.22885 | -1.25967 | 31912 ft | 504 kts | 76° |
| 2026-05-06 12:02 | 41.23695 | -1.21444 | 32221 ft | 503 kts | 76° |
| 2026-05-06 12:02 | 41.24500 | -1.16928 | 32523 ft | 503 kts | 76° |
| 2026-05-06 12:03 | 41.25304 | -1.12404 | 32836 ft | 502 kts | 76° |
| 2026-05-06 12:03 | 41.26105 | -1.07892 | 33130 ft | 502 kts | 76° |
| 2026-05-06 12:03 | 41.26904 | -1.03382 | 33440 ft | 501 kts | 77° |
| 2026-05-06 12:03 | 41.27700 | -0.98877 | 33747 ft | 500 kts | 77° |
| 2026-05-06 12:04 | 41.28482 | -0.94443 | 34056 ft | 499 kts | 77° |
| 2026-05-06 12:04 | 41.29274 | -0.89945 | 34314 ft | 499 kts | 77° |
| 2026-05-06 12:04 | 41.30062 | -0.85457 | 34562 ft | 499 kts | 77° |
| 2026-05-06 12:04 | 41.30848 | -0.80967 | 34800 ft | 498 kts | 77° |
| 2026-05-06 12:05 | 41.31630 | -0.76483 | 35044 ft | 498 kts | 77° |
| 2026-05-06 12:05 | 41.32410 | -0.72003 | 35274 ft | 497 kts | 77° |
| 2026-05-06 12:05 | 41.33189 | -0.67520 | 35501 ft | 497 kts | 77° |
| 2026-05-06 12:05 | 41.33963 | -0.63045 | 35717 ft | 496 kts | 77° |
| 2026-05-06 12:06 | 41.34735 | -0.58566 | 35921 ft | 496 kts | 78° |
| 2026-05-06 12:06 | 41.35279 | -0.54110 | 36110 ft | 495 kts | 87° |
| 2026-05-06 12:06 | 41.35364 | -0.49550 | 36303 ft | 493 kts | 92° |
| 2026-05-06 12:06 | 41.35327 | -0.44986 | 36503 ft | 493 kts | 92° |
| 2026-05-06 12:07 | 41.35294 | -0.40429 | 36699 ft | 492 kts | 92° |
| 2026-05-06 12:07 | 41.35263 | -0.35876 | 36894 ft | 492 kts | 92° |
| 2026-05-06 12:07 | 41.35197 | -0.26756 | 36988 ft | 493 kts | 92° |
| 2026-05-06 12:08 | 41.35114 | -0.17694 | 36986 ft | 493 kts | 93° |
| 2026-05-06 12:08 | 41.35026 | -0.08563 | 36987 ft | 494 kts | 93° |
| 2026-05-06 12:09 | 41.34929 | 0.00574 | 36981 ft | 494 kts | 93° |
| 2026-05-06 12:09 | 41.34825 | 0.09710 | 36977 ft | 494 kts | 93° |
| 2026-05-06 12:10 | 41.34708 | 0.18787 | 36971 ft | 494 kts | 94° |
| 2026-05-06 12:10 | 41.34588 | 0.27925 | 36966 ft | 494 kts | 93° |
| 2026-05-06 12:11 | 41.34473 | 0.37066 | 36967 ft | 494 kts | 94° |
| 2026-05-06 12:11 | 41.34342 | 0.46220 | 36964 ft | 495 kts | 94° |
| 2026-05-06 12:12 | 41.34193 | 0.55373 | 36962 ft | 495 kts | 94° |
| 2026-05-06 12:12 | 41.34042 | 0.64475 | 36960 ft | 495 kts | 94° |
| 2026-05-06 12:13 | 41.33892 | 0.73639 | 36953 ft | 496 kts | 94° |
| 2026-05-06 12:13 | 41.33742 | 0.82813 | 36951 ft | 496 kts | 94° |
| 2026-05-06 12:14 | 41.33573 | 0.91992 | 36953 ft | 496 kts | 94° |
| 2026-05-06 12:14 | 41.33393 | 1.01117 | 36949 ft | 497 kts | 94° |
| 2026-05-06 12:15 | 41.33205 | 1.10302 | 36952 ft | 497 kts | 94° |
| 2026-05-06 12:15 | 41.33011 | 1.19485 | 36951 ft | 497 kts | 94° |
| 2026-05-06 12:16 | 41.32820 | 1.28677 | 36948 ft | 497 kts | 94° |
| 2026-05-06 12:16 | 41.32620 | 1.37816 | 36945 ft | 498 kts | 95° |
| 2026-05-06 12:17 | 41.32404 | 1.47023 | 36942 ft | 498 kts | 95° |
| 2026-05-06 12:17 | 41.32182 | 1.56227 | 36939 ft | 498 kts | 95° |
| 2026-05-06 12:18 | 41.31952 | 1.65437 | 36951 ft | 498 kts | 95° |
| 2026-05-06 12:18 | 41.31719 | 1.74649 | 36948 ft | 498 kts | 95° |
| 2026-05-06 12:19 | 41.31482 | 1.83796 | 36967 ft | 498 kts | 95° |
| 2026-05-06 12:19 | 41.31224 | 1.93007 | 36965 ft | 498 kts | 95° |
| 2026-05-06 12:20 | 41.30958 | 2.02211 | 36968 ft | 498 kts | 95° |
| 2026-05-06 12:20 | 41.30550 | 2.11393 | 36973 ft | 495 kts | 103° |
| 2026-05-06 12:21 | 41.29157 | 2.20246 | 36973 ft | 492 kts | 107° |
| 2026-05-06 12:21 | 41.27696 | 2.29124 | 36965 ft | 492 kts | 107° |
| 2026-05-06 12:22 | 41.26225 | 2.38014 | 36968 ft | 492 kts | 107° |
| 2026-05-06 12:22 | 41.24744 | 2.46899 | 36968 ft | 492 kts | 107° |
| 2026-05-06 12:23 | 41.23265 | 2.55715 | 36972 ft | 492 kts | 107° |
| 2026-05-06 12:23 | 41.21776 | 2.64586 | 36969 ft | 492 kts | 107° |
| 2026-05-06 12:24 | 41.20281 | 2.73449 | 36962 ft | 491 kts | 107° |
| 2026-05-06 12:24 | 41.18774 | 2.82297 | 36965 ft | 491 kts | 108° |
| 2026-05-06 12:25 | 41.17259 | 2.91136 | 36964 ft | 491 kts | 108° |
| 2026-05-06 12:25 | 41.15743 | 2.99914 | 36966 ft | 491 kts | 108° |
| 2026-05-06 12:26 | 41.14222 | 3.08740 | 36962 ft | 491 kts | 108° |
| 2026-05-06 12:26 | 41.12698 | 3.17557 | 36958 ft | 490 kts | 108° |
| 2026-05-06 12:27 | 41.11161 | 3.26363 | 36956 ft | 490 kts | 108° |
| 2026-05-06 12:27 | 41.09632 | 3.35109 | 36971 ft | 490 kts | 108° |
| 2026-05-06 12:28 | 41.08083 | 3.43911 | 36973 ft | 490 kts | 108° |
| 2026-05-06 12:28 | 41.06521 | 3.52704 | 36969 ft | 490 kts | 108° |
| 2026-05-06 12:29 | 41.04961 | 3.61491 | 36968 ft | 490 kts | 108° |
| 2026-05-06 12:29 | 41.03412 | 3.70214 | 36968 ft | 490 kts | 108° |
| 2026-05-06 12:30 | 41.01841 | 3.78988 | 36967 ft | 489 kts | 109° |
| 2026-05-06 12:30 | 41.00263 | 3.87751 | 36969 ft | 489 kts | 109° |
| 2026-05-06 12:31 | 40.98675 | 3.96509 | 36967 ft | 489 kts | 109° |
| 2026-05-06 12:31 | 40.97088 | 4.05195 | 36970 ft | 489 kts | 109° |
| 2026-05-06 12:32 | 40.95486 | 4.13943 | 36968 ft | 489 kts | 109° |
| 2026-05-06 12:32 | 40.93875 | 4.22688 | 36970 ft | 489 kts | 109° |
| 2026-05-06 12:33 | 40.92260 | 4.31437 | 36971 ft | 490 kts | 109° |
| 2026-05-06 12:33 | 40.90641 | 4.40173 | 36969 ft | 489 kts | 109° |
| 2026-05-06 12:34 | 40.89018 | 4.48846 | 36972 ft | 489 kts | 109° |
| 2026-05-06 12:34 | 40.87392 | 4.57583 | 36976 ft | 490 kts | 109° |
| 2026-05-06 12:35 | 40.85793 | 4.66328 | 36976 ft | 492 kts | 105° |
| 2026-05-06 12:35 | 40.84902 | 4.75328 | 36981 ft | 495 kts | 101° |
| 2026-05-06 12:36 | 40.84074 | 4.84285 | 36978 ft | 494 kts | 102° |
| 2026-05-06 12:36 | 40.83230 | 4.93284 | 36976 ft | 494 kts | 102° |
| 2026-05-06 12:37 | 40.82379 | 5.02280 | 36973 ft | 494 kts | 102° |
| 2026-05-06 12:37 | 40.81529 | 5.11274 | 36974 ft | 494 kts | 102° |
| 2026-05-06 12:38 | 40.80674 | 5.20260 | 36972 ft | 493 kts | 102° |
| 2026-05-06 12:38 | 40.79815 | 5.29179 | 36975 ft | 493 kts | 102° |
| 2026-05-06 12:39 | 40.78939 | 5.38157 | 36972 ft | 493 kts | 102° |
| 2026-05-06 12:39 | 40.78057 | 5.47122 | 36976 ft | 493 kts | 102° |
| 2026-05-06 12:40 | 40.77177 | 5.56087 | 36978 ft | 492 kts | 102° |
| 2026-05-06 12:40 | 40.76288 | 5.64975 | 36982 ft | 492 kts | 102° |
| 2026-05-06 12:41 | 40.75382 | 5.73914 | 36982 ft | 491 kts | 102° |
| 2026-05-06 12:41 | 40.74473 | 5.82843 | 36983 ft | 491 kts | 102° |
| 2026-05-06 12:42 | 40.73564 | 5.91766 | 36979 ft | 491 kts | 102° |
| 2026-05-06 12:42 | 40.72655 | 6.00615 | 36978 ft | 490 kts | 102° |
| 2026-05-06 12:43 | 40.71732 | 6.09511 | 36975 ft | 490 kts | 102° |
| 2026-05-06 12:43 | 40.70797 | 6.18399 | 36980 ft | 489 kts | 102° |
| 2026-05-06 12:44 | 40.69864 | 6.27280 | 36977 ft | 489 kts | 103° |
| 2026-05-06 12:44 | 40.68919 | 6.36144 | 36981 ft | 488 kts | 103° |
| 2026-05-06 12:45 | 40.67975 | 6.44946 | 36977 ft | 488 kts | 103° |
| 2026-05-06 12:46 | 40.66540 | 6.58206 | 36977 ft | 487 kts | 103° |
| 2026-05-06 12:46 | 40.65586 | 6.67039 | 36979 ft | 487 kts | 103° |
| 2026-05-06 12:47 | 40.64628 | 6.75806 | 36981 ft | 486 kts | 103° |
| 2026-05-06 12:47 | 40.63645 | 6.84611 | 36985 ft | 486 kts | 103° |
| 2026-05-06 12:48 | 40.62688 | 6.93146 | 36983 ft | 486 kts | 103° |
| 2026-05-06 12:48 | 40.61704 | 7.01938 | 36980 ft | 485 kts | 103° |
| 2026-05-06 12:49 | 40.60723 | 7.10666 | 36978 ft | 485 kts | 103° |
| 2026-05-06 12:49 | 40.59720 | 7.19442 | 36977 ft | 485 kts | 103° |
| 2026-05-06 12:50 | 40.58718 | 7.28211 | 36977 ft | 484 kts | 103° |
| 2026-05-06 12:50 | 40.57711 | 7.36966 | 36976 ft | 484 kts | 103° |
| 2026-05-06 12:51 | 40.56726 | 7.45657 | 36976 ft | 486 kts | 99° |
| 2026-05-06 12:51 | 40.56928 | 7.54597 | 36973 ft | 492 kts | 86° |
| 2026-05-06 12:52 | 40.57716 | 7.63537 | 36970 ft | 492 kts | 86° |
| 2026-05-06 12:52 | 40.58494 | 7.72478 | 36973 ft | 492 kts | 86° |
| 2026-05-06 12:53 | 40.59255 | 7.81363 | 36972 ft | 492 kts | 87° |
| 2026-05-06 12:53 | 40.60006 | 7.90317 | 36972 ft | 492 kts | 87° |
| 2026-05-06 12:54 | 40.60617 | 7.97760 | 36983 ft | 492 kts | 87° |
| 2026-05-06 12:54 | 40.61355 | 8.06715 | 36972 ft | 492 kts | 87° |
| 2026-05-06 12:55 | 40.62220 | 8.17130 | 36969 ft | 492 kts | 87° |
| 2026-05-06 12:55 | 40.62954 | 8.26085 | 36964 ft | 492 kts | 88° |
| 2026-05-06 12:56 | 40.63552 | 8.33542 | 36964 ft | 493 kts | 88° |
| 2026-05-06 12:56 | 40.64281 | 8.42515 | 36957 ft | 494 kts | 85° |
| 2026-05-06 12:57 | 40.66639 | 8.52620 | 36959 ft | 501 kts | 68° |
| 2026-05-06 12:57 | 40.68941 | 8.59689 | 36959 ft | 502 kts | 69° |
| 2026-05-06 12:58 | 40.71654 | 8.68096 | 36962 ft | 502 kts | 69° |
| 2026-05-06 12:58 | 40.74372 | 8.76588 | 36952 ft | 503 kts | 69° |
| 2026-05-06 12:59 | 40.77085 | 8.85093 | 36946 ft | 504 kts | 69° |
| 2026-05-06 12:59 | 40.79808 | 8.93613 | 36958 ft | 504 kts | 69° |
| 2026-05-06 13:00 | 40.82507 | 9.02098 | 36951 ft | 505 kts | 69° |
| 2026-05-06 13:00 | 40.85210 | 9.10651 | 36943 ft | 505 kts | 69° |
| 2026-05-06 13:01 | 40.87918 | 9.19234 | 36941 ft | 506 kts | 69° |
| 2026-05-06 13:01 | 40.90622 | 9.27828 | 36942 ft | 507 kts | 69° |
| 2026-05-06 13:02 | 40.93330 | 9.36443 | 36935 ft | 507 kts | 69° |
| 2026-05-06 13:02 | 40.96007 | 9.45009 | 36934 ft | 507 kts | 69° |
| 2026-05-06 13:03 | 40.98699 | 9.53637 | 36937 ft | 507 kts | 69° |
| 2026-05-06 13:03 | 41.01385 | 9.62276 | 36954 ft | 507 kts | 69° |
| 2026-05-06 13:04 | 41.04064 | 9.70927 | 36962 ft | 508 kts | 69° |
| 2026-05-06 13:04 | 41.06719 | 9.79522 | 36964 ft | 508 kts | 69° |
| 2026-05-06 13:05 | 41.09390 | 9.88188 | 36969 ft | 508 kts | 69° |
| 2026-05-06 13:05 | 41.12051 | 9.96873 | 36966 ft | 508 kts | 69° |
| 2026-05-06 13:06 | 41.14706 | 10.05568 | 36962 ft | 509 kts | 69° |
| 2026-05-06 13:06 | 41.17344 | 10.14223 | 36962 ft | 510 kts | 69° |
| 2026-05-06 13:07 | 41.19998 | 10.22958 | 36965 ft | 510 kts | 69° |
| 2026-05-06 13:07 | 41.22650 | 10.31701 | 36966 ft | 510 kts | 69° |
| 2026-05-06 13:08 | 41.25294 | 10.40451 | 36968 ft | 510 kts | 69° |
| 2026-05-06 13:08 | 41.27927 | 10.49215 | 36973 ft | 510 kts | 69° |
| 2026-05-06 13:09 | 41.30541 | 10.57916 | 36980 ft | 510 kts | 69° |
| 2026-05-06 13:09 | 41.33159 | 10.66679 | 36985 ft | 509 kts | 69° |
| 2026-05-06 13:10 | 41.35761 | 10.75438 | 36984 ft | 508 kts | 69° |
| 2026-05-06 13:10 | 41.38351 | 10.84189 | 36983 ft | 508 kts | 69° |
| 2026-05-06 13:11 | 41.40922 | 10.92866 | 36992 ft | 507 kts | 69° |
| 2026-05-06 13:11 | 41.43499 | 11.01604 | 36991 ft | 506 kts | 69° |
| 2026-05-06 13:12 | 41.46064 | 11.10338 | 36987 ft | 506 kts | 69° |
| 2026-05-06 13:12 | 41.48621 | 11.19062 | 36987 ft | 505 kts | 70° |
| 2026-05-06 13:13 | 41.51156 | 11.27721 | 36991 ft | 504 kts | 70° |
| 2026-05-06 13:13 | 41.53689 | 11.36434 | 36994 ft | 504 kts | 70° |
| 2026-05-06 13:14 | 41.56214 | 11.45153 | 36995 ft | 503 kts | 70° |
| 2026-05-06 13:14 | 41.58730 | 11.53856 | 36994 ft | 502 kts | 70° |
| 2026-05-06 13:15 | 41.61235 | 11.62555 | 36997 ft | 501 kts | 70° |
| 2026-05-06 13:15 | 41.63711 | 11.71193 | 37003 ft | 501 kts | 70° |
| 2026-05-06 13:16 | 41.66196 | 11.79890 | 37010 ft | 500 kts | 70° |
| 2026-05-06 13:16 | 41.68675 | 11.88584 | 37013 ft | 500 kts | 70° |
| 2026-05-06 13:17 | 41.71147 | 11.97271 | 37016 ft | 499 kts | 70° |
| 2026-05-06 13:17 | 41.73608 | 12.05949 | 37017 ft | 499 kts | 70° |
| 2026-05-06 13:18 | 41.75959 | 12.14301 | 37017 ft | 498 kts | 70° |